Hlavní strana
METAR-TAF:

METAR-TAF

Letiště :

St. Augustine Airport

St. Augustine, Florida, Spojené státy americké

zeměpisná šířka: 29-57-33N, zeměpisná délka: 081-20-23W, výška: 3 m

Aktuální stav počasí

Zpráva byla vytvořena před 34 minutami, v 22:56 UTC
Bezvětří
Teplota 14°C
Vlhkost vzduchu 67%
Tlak 1018 hPa
Viditelnost: 16.1 km
Zataženo ve výšce 12000 ft

METAR: KSGJ 262256Z 00000KT 10SM OVC120 14/08 A3005 RMK AO2 SLP176 T01390078 $

Čas: 18:30 (23:30 UTC)

Předpověď počasí

Zpráva byla vytvořena před 1 hodinou a 21 minutami, v 22:09 UTC
Předpověď platná od 26 v 22 UTC do 27 v 18 UTC
vítr z různých směrů 3 kt
Viditelnost: 10 km
Zataženo ve výšce 9000 ft
Od 27 v 0900 UTC
vítr z různých směrů 2 kt
Viditelnost: 10 km
Polojasno ve výšce 2500 ft
Zataženo ve výšce 5000 ft
přeháňky v blízkosti
Od 27 v 1700 UTC
Východní vítr 6 kt
Viditelnost: 10 km
Zataženo ve výšce 5000 ft

TAF: KSGJ 262209Z 2622/2718 VRB03KT P6SM OVC090 FM270900 VRB02KT P6SM VCSH SCT025 OVC050 FM271700 08006KT P6SM OVC050

Stav a předpovědi počasí z více než 4 000 letišť (zprávy METAR a TAF).

Červené a žluté tečky na mapě představují dostupné meteorologické stanice.

Když kurzor umístíte na tečku, zobrazí se název stanice.

Pak kliknutím zobrazíte stav a předpověď počasí.

Chcete-li změnit mapu, kliknutím na zelené tlačítko se znaménkem +mapu přiblížíte, kliknutím na zelené tlačítko se znaménkem – mapu oddálíte a kliknutím na zelené šipky přejdete na sousední mapy.


METAR-TAF: